Time;durP1;ratioP1;P1;durP2;ratioP2;P2;SDS_P1;SDS_P2;PMS_P1;PMS_P2;Temp;Humidity;BMP_temperature;BMP_pressure;BME280_temperature;BME280_humidity;BME280_pressure;Samples;Min_cycle;Max_cycle;Signal;HPM_P1;HPM_P2
2022/08/04 00:01:36;;;;;;;;;;;;;;;;;;5112947;28;911;-71
2022/08/04 00:04:03;;;;;;;;;;;;;;;;;;5112414;28;994;-72
2022/08/04 00:06:37;;;;;;;;;;;;;;;;;;5112702;28;974;-72
2022/08/04 00:09:06;;;;;;;;;;;;;;;;;;5112186;28;887;-72
2022/08/04 00:11:32;;;;;;;;;;;;;;;;;;5112898;28;961;-72
2022/08/04 00:14:01;;;;;;;;;;;;;;;;;;5094038;28;1282;-72
2022/08/04 00:16:28;;;;;;;;;;;;;;;;;;5111241;28;1965;-72
2022/08/04 00:18:56;;;;;;;;;;;;;;;;;;5111189;28;898;-72
2022/08/04 00:21:23;;;;;;;;;;;;;;;;;;5112239;28;909;-72
2022/08/04 00:23:50;;;;;;;;;;;;;;;;;;5111480;28;1327;-72
2022/08/04 00:26:16;;;;;;;;;;;;;;;;;;5111845;28;908;-71
2022/08/04 00:28:42;;;;;;;;;;;;;;;;;;5112321;28;835;-72
2022/08/04 00:31:09;;;;;;;;;;;;;;;;;;5111966;28;809;-72
2022/08/04 00:33:36;;;;;;;;;;;;;;;;;;5112484;28;1006;-71
2022/08/04 00:36:01;;;;;;;;;;;;;;;;;;5111463;28;1894;-71
2022/08/04 00:38:28;;;;;;;;;;;;;;;;;;5112540;28;841;-71
2022/08/04 00:41:05;;;;;;;;;;;;;;;;;;5112299;28;1049;-71
2022/08/04 00:43:32;;;;;;;;;;;;;;;;;;5111867;28;1244;-71
2022/08/04 00:45:57;;;;;;;;;;;;;;;;;;5112400;28;903;-70
2022/08/04 00:48:41;;;;;;;;;;;;;;;;;;5111557;28;1146;-71
2022/08/04 00:51:07;;;;;;;;;;;;;;;;;;5110663;28;1225;-71
2022/08/04 00:53:43;;;;;;;;;;;;;;;;;;5112301;28;1014;-71
2022/08/04 00:56:20;;;;;;;;;;;;;;;;;;5112124;28;1902;-71
2022/08/04 00:59:04;;;;;;;;;;;;;;;;;;5111702;28;1304;-71
2022/08/04 01:01:38;;;;;;;;;;;;;;;;;;5113001;28;974;-71
2022/08/04 01:04:06;;;;;;;;;;;;;;;;;;5111062;28;1258;-71
2022/08/04 01:06:34;;;;;;;;;;;;;;;;;;5113499;28;956;-71
2022/08/04 01:09:11;;;;;;;;;;;;;;;;;;5110985;28;1442;-71
2022/08/04 01:11:55;;;;;;;;;;;;;;;;;;5111840;28;1298;-71
2022/08/04 01:14:38;;;;;;;;;;;;;;;;;;5112571;28;891;-71
2022/08/04 01:17:28;;;;;;;;;;;;;;;;;;5109956;28;2048;-70
2022/08/04 01:19:54;;;;;;;;;;;;;;;;;;5103852;28;1113;-71
2022/08/04 01:22:31;;;;;;;;;;;;;;;;;;5109947;28;1445;-71
2022/08/04 01:25:15;;;;;;;;;;;;;;;;;;5111870;28;962;-71
2022/08/04 01:27:40;;;;;;;;;;;;;;;;;;5112860;28;883;-71
2022/08/04 01:30:05;;;;;;;;;;;;;;;;;;5109860;28;1089;-71
2022/08/04 01:32:34;;;;;;;;;;;;;;;;;;5111845;28;966;-71
2022/08/04 01:35:14;;;;;;;;;;;;;;;;;;5111633;28;812;-71
2022/08/04 01:38:11;;;;;;;;;;;;;;;;;;5112011;28;1144;-71
2022/08/04 01:40:37;;;;;;;;;;;;;;;;;;5110598;28;1359;-71
2022/08/04 01:43:03;;;;;;;;;;;;;;;;;;5111290;28;800;-72
2022/08/04 01:45:29;;;;;;;;;;;;;;;;;;5110255;28;1439;-70
2022/08/04 01:47:55;;;;;;;;;;;;;;;;;;5110563;28;847;-70
2022/08/04 01:50:21;;;;;;;;;;;;;;;;;;5109504;28;1167;-70
2022/08/04 01:52:47;;;;;;;;;;;;;;;;;;5110529;28;947;-71
2022/08/04 01:55:13;;;;;;;;;;;;;;;;;;5112040;28;1906;-71
2022/08/04 01:57:46;;;;;;;;;;;;;;;;;;5115783;28;1872;-71
2022/08/04 02:00:13;;;;;;;;;;;;;;;;;;5114761;28;887;-71
2022/08/04 02:02:39;;;;;;;;;;;;;;;;;;5115783;28;848;-71
2022/08/04 02:05:04;;;;;;;;;;;;;;;;;;5113307;28;1213;-71
2022/08/04 02:07:29;;;;;;;;;;;;;;;;;;5115709;28;1057;-71
2022/08/04 02:09:57;;;;;;;;;;;;;;;;;;5115434;28;899;-71
2022/08/04 02:12:35;;;;;;;;;;;;;;;;;;5114593;28;1044;-71
2022/08/04 02:15:08;;;;;;;;;;;;;;;;;;5114876;28;892;-71
2022/08/04 02:17:39;;;;;;;;;;;;;;;;;;5115212;28;856;-71
2022/08/04 02:20:23;;;;;;;;;;;;;;;;;;5114714;28;999;-71
2022/08/04 02:22:52;;;;;;;;;;;;;;;;;;5115217;28;1164;-71
2022/08/04 02:25:21;;;;;;;;;;;;;;;;;;5114207;28;907;-71
2022/08/04 02:28:13;;;;;;;;;;;;;;;;;;5113639;28;1164;-72
2022/08/04 02:31:01;;;;;;;;;;;;;;;;;;5082089;28;1244;-72
2022/08/04 02:33:30;;;;;;;;;;;;;;;;;;5096086;28;1244;-71
2022/08/04 02:35:58;;;;;;;;;;;;;;;;;;5114957;28;1961;-72
2022/08/04 02:38:30;;;;;;;;;;;;;;;;;;5114432;28;915;-71
2022/08/04 02:40:55;;;;;;;;;;;;;;;;;;5115055;27;908;-72
2022/08/04 02:43:24;;;;;;;;;;;;;;;;;;5112706;28;1224;-71
2022/08/04 02:45:51;;;;;;;;;;;;;;;;;;5114804;28;868;-71
2022/08/04 02:48:19;;;;;;;;;;;;;;;;;;5113944;28;824;-72
2022/08/04 02:50:44;;;;;;;;;;;;;;;;;;5114502;28;828;-71
2022/08/04 02:53:12;;;;;;;;;;;;;;;;;;5114494;28;863;-70
2022/08/04 02:55:40;;;;;;;;;;;;;;;;;;5113822;28;1959;-70
2022/08/04 02:58:06;;;;;;;;;;;;;;;;;;5114493;28;899;-71
2022/08/04 03:00:32;;;;;;;;;;;;;;;;;;5113515;28;1226;-71
2022/08/04 03:03:03;;;;;;;;;;;;;;;;;;5113628;28;951;-71
2022/08/04 03:05:47;;;;;;;;;;;;;;;;;;5113157;28;1158;-71
2022/08/04 03:08:13;;;;;;;;;;;;;;;;;;5114259;28;852;-71
2022/08/04 03:10:41;;;;;;;;;;;;;;;;;;5115193;28;829;-70
2022/08/04 03:13:25;;;;;;;;;;;;;;;;;;5113115;28;1265;-71
2022/08/04 03:15:57;;;;;;;;;;;;;;;;;;5114510;28;1902;-71
2022/08/04 03:18:25;;;;;;;;;;;;;;;;;;5114064;28;1058;-71
2022/08/04 03:20:50;;;;;;;;;;;;;;;;;;5114271;28;958;-71
2022/08/04 03:23:34;;;;;;;;;;;;;;;;;;5113566;28;884;-71
2022/08/04 03:26:18;;;;;;;;;;;;;;;;;;5113902;28;979;-71
2022/08/04 03:29:11;;;;;;;;;;;;;;;;;;5113802;28;978;-71
2022/08/04 03:31:55;;;;;;;;;;;;;;;;;;5112570;28;880;-70
2022/08/04 03:34:32;;;;;;;;;;;;;;;;;;5112828;28;832;-70
2022/08/04 03:37:16;;;;;;;;;;;;;;;;;;5113641;28;1882;-70
2022/08/04 03:39:55;;;;;;;;;;;;;;;;;;5112143;28;1185;-70
2022/08/04 03:42:43;;;;;;;;;;;;;;;;;;5112659;28;994;-71
2022/08/04 03:45:31;;;;;;;;;;;;;;;;;;5111548;28;1332;-71
2022/08/04 03:47:56;;;;;;;;;;;;;;;;;;5113217;28;1298;-70
2022/08/04 03:50:40;;;;;;;;;;;;;;;;;;5112291;28;875;-71
2022/08/04 03:53:28;;;;;;;;;;;;;;;;;;5112940;28;888;-71
2022/08/04 03:55:53;;;;;;;;;;;;;;;;;;5112089;28;1897;-70
2022/08/04 03:58:37;;;;;;;;;;;;;;;;;;5112335;28;971;-71
2022/08/04 04:01:08;;;;;;;;;;;;;;;;;;5112944;28;903;-71
2022/08/04 04:03:33;;;;;;;;;;;;;;;;;;5111693;28;1344;-71
2022/08/04 04:06:14;;;;;;;;;;;;;;;;;;5112379;28;1108;-71
2022/08/04 04:08:45;;;;;;;;;;;;;;;;;;5111434;28;1585;-71
2022/08/04 04:11:19;;;;;;;;;;;;;;;;;;5112850;28;808;-71
2022/08/04 04:14:03;;;;;;;;;;;;;;;;;;5111834;28;1186;-71
2022/08/04 04:16:41;;;;;;;;;;;;;;;;;;5112892;28;1993;-71
2022/08/04 04:19:25;;;;;;;;;;;;;;;;;;5110890;28;1198;-71
2022/08/04 04:21:50;;;;;;;;;;;;;;;;;;5113443;28;883;-71
2022/08/04 04:24:15;;;;;;;;;;;;;;;;;;5112507;28;844;-71
2022/08/04 04:26:43;;;;;;;;;;;;;;;;;;5112963;28;821;-71
2022/08/04 04:29:20;;;;;;;;;;;;;;;;;;5112733;28;833;-71
2022/08/04 04:32:00;;;;;;;;;;;;;;;;;;5113016;28;940;-71
2022/08/04 04:34:44;;;;;;;;;;;;;;;;;;5106100;28;1206;-71
2022/08/04 04:37:15;;;;;;;;;;;;;;;;;;5105070;28;1902;-71
2022/08/04 04:39:59;;;;;;;;;;;;;;;;;;5102993;28;1139;-71
2022/08/04 04:42:43;;;;;;;;;;;;;;;;;;5099022;28;1183;-71
2022/08/04 04:45:22;;;;;;;;;;;;;;;;;;5097082;28;1171;-71
2022/08/04 04:48:05;;;;;;;;;;;;;;;;;;5092822;28;923;-71
2022/08/04 04:50:37;;;;;;;;;;;;;;;;;;5092698;28;932;-71
2022/08/04 04:53:16;;;;;;;;;;;;;;;;;;5092925;28;813;-71
2022/08/04 04:55:50;;;;;;;;;;;;;;;;;;5092525;28;1906;-71
2022/08/04 04:58:17;;;;;;;;;;;;;;;;;;5092450;28;1034;-71
2022/08/04 05:01:00;;;;;;;;;;;;;;;;;;5092567;28;820;-71
2022/08/04 05:03:28;;;;;;;;;;;;;;;;;;5092303;28;999;-71
2022/08/04 05:06:13;;;;;;;;;;;;;;;;;;5091922;28;939;-71
2022/08/04 05:08:50;;;;;;;;;;;;;;;;;;5090686;28;853;-72
2022/08/04 05:11:18;;;;;;;;;;;;;;;;;;5091497;28;832;-72
2022/08/04 05:13:55;;;;;;;;;;;;;;;;;;5091986;28;1386;-72
2022/08/04 05:16:40;;;;;;;;;;;;;;;;;;5090302;28;1910;-72
2022/08/04 05:19:17;;;;;;;;;;;;;;;;;;5091431;28;911;-71
2022/08/04 05:21:46;;;;;;;;;;;;;;;;;;5091640;28;812;-71
2022/08/04 05:24:13;;;;;;;;;;;;;;;;;;5091526;28;839;-71
2022/08/04 05:26:49;;;;;;;;;;;;;;;;;;5092020;28;927;-71
2022/08/04 05:29:25;;;;;;;;;;;;;;;;;;5091505;28;950;-71
2022/08/04 05:31:51;;;;;;;;;;;;;;;;;;5095818;28;860;-71
2022/08/04 05:34:21;;;;;;;;;;;;;;;;;;5095097;28;1301;-71
2022/08/04 05:36:49;;;;;;;;;;;;;;;;;;5094551;28;1927;-71
2022/08/04 05:39:17;;;;;;;;;;;;;;;;;;5095323;28;824;-71
2022/08/04 05:41:43;;;;;;;;;;;;;;;;;;5095615;28;833;-71
2022/08/04 05:44:09;;;;;;;;;;;;;;;;;;5095397;28;837;-71
2022/08/04 05:46:35;;;;;;;;;;;;;;;;;;5095417;28;911;-71
2022/08/04 05:49:01;;;;;;;;;;;;;;;;;;5077250;28;1270;-71
2022/08/04 05:51:27;;;;;;;;;;;;;;;;;;5095373;28;853;-71
2022/08/04 05:53:54;;;;;;;;;;;;;;;;;;5093783;28;817;-71
2022/08/04 05:56:19;;;;;;;;;;;;;;;;;;5094578;28;1906;-74
2022/08/04 05:58:45;;;;;;;;;;;;;;;;;;5095169;28;995;-71
2022/08/04 06:01:11;;;;;;;;;;;;;;;;;;5095199;28;915;-71
2022/08/04 06:03:37;;;;;;;;;;;;;;;;;;5093986;28;840;-72
2022/08/04 06:06:03;;;;;;;;;;;;;;;;;;5094291;28;1006;-71
2022/08/04 06:08:29;;;;;;;;;;;;;;;;;;5095611;28;939;-71
2022/08/04 06:10:56;;;;;;;;;;;;;;;;;;5095458;28;884;-70
2022/08/04 06:13:25;;;;;;;;;;;;;;;;;;5094475;28;1084;-71
2022/08/04 06:15:53;;;;;;;;;;;;;;;;;;5095292;28;1953;-71
2022/08/04 06:18:19;;;;;;;;;;;;;;;;;;5094687;28;879;-71
2022/08/04 06:20:45;;;;;;;;;;;;;;;;;;5093652;28;1961;-71
2022/08/04 06:23:13;;;;;;;;;;;;;;;;;;5093973;28;1349;-71
2022/08/04 06:25:45;;;;;;;;;;;;;;;;;;5095544;28;824;-71
2022/08/04 06:28:10;;;;;;;;;;;;;;;;;;5095483;28;903;-71
2022/08/04 06:30:36;;;;;;;;;;;;;;;;;;5095613;28;1006;-72
2022/08/04 06:33:12;;;;;;;;;;;;;;;;;;5095123;28;872;-71
2022/08/04 06:35:38;;;;;;;;;;;;;;;;;;5095347;28;1890;-71
2022/08/04 06:38:03;;;;;;;;;;;;;;;;;;5094649;28;1088;-71
2022/08/04 06:40:29;;;;;;;;;;;;;;;;;;5094472;28;821;-71
2022/08/04 06:42:54;;;;;;;;;;;;;;;;;;5092315;28;782;-71
2022/08/04 06:45:20;;;;;;;;;;;;;;;;;;5092523;28;1466;-71
2022/08/04 06:47:46;;;;;;;;;;;;;;;;;;5094238;28;841;-71
2022/08/04 06:50:12;;;;;;;;;;;;;;;;;;5093852;28;974;-71
2022/08/04 06:52:37;;;;;;;;;;;;;;;;;;5094286;28;891;-71
2022/08/04 06:55:04;;;;;;;;;;;;;;;;;;5094012;28;809;-71
2022/08/04 06:57:30;;;;;;;;;;;;;;;;;;5092419;28;3015;-71
2022/08/04 06:59:58;;;;;;;;;;;;;;;;;;5091812;28;951;-71
2022/08/04 07:02:28;;;;;;;;;;;;;;;;;;5093365;28;907;-71
2022/08/04 07:04:54;;;;;;;;;;;;;;;;;;5093323;28;963;-71
2022/08/04 07:07:20;;;;;;;;;;;;;;;;;;5091849;28;1421;-71
2022/08/04 07:09:45;;;;;;;;;;;;;;;;;;5093424;28;940;-71
2022/08/04 07:12:11;;;;;;;;;;;;;;;;;;5092917;28;1065;-71
2022/08/04 07:14:38;;;;;;;;;;;;;;;;;;5093600;28;908;-71
2022/08/04 07:17:04;;;;;;;;;;;;;;;;;;5091702;28;1909;-71
2022/08/04 07:19:34;;;;;;;;;;;;;;;;;;5092826;28;843;-71
2022/08/04 07:22:00;;;;;;;;;;;;;;;;;;5092914;28;1101;-71
2022/08/04 07:24:32;;;;;;;;;;;;;;;;;;5093057;28;828;-71
2022/08/04 07:26:57;;;;;;;;;;;;;;;;;;5093359;28;1066;-71
2022/08/04 07:29:22;;;;;;;;;;;;;;;;;;5093053;28;962;-71
2022/08/04 07:31:48;;;;;;;;;;;;;;;;;;5093058;28;915;-71
2022/08/04 07:34:14;;;;;;;;;;;;;;;;;;5092959;28;868;-71
2022/08/04 07:36:39;;;;;;;;;;;;;;;;;;5093232;28;1917;-71
2022/08/04 07:39:04;;;;;;;;;;;;;;;;;;5092800;28;940;-71
2022/08/04 07:41:30;;;;;;;;;;;;;;;;;;5092905;28;915;-70
2022/08/04 07:43:55;;;;;;;;;;;;;;;;;;5092776;28;983;-71
2022/08/04 07:46:20;;;;;;;;;;;;;;;;;;5092141;28;1041;-70
2022/08/04 07:48:46;;;;;;;;;;;;;;;;;;5092969;28;1101;-71
2022/08/04 07:51:11;;;;;;;;;;;;;;;;;;5092975;28;915;-70
2022/08/04 07:53:37;;;;;;;;;;;;;;;;;;5091044;28;876;-71
2022/08/04 07:56:02;;;;;;;;;;;;;;;;;;5092546;28;1967;-71
2022/08/04 07:58:28;;;;;;;;;;;;;;;;;;5092546;28;832;-71
2022/08/04 08:00:53;;;;;;;;;;;;;;;;;;5092638;28;841;-71
2022/08/04 08:03:19;;;;;;;;;;;;;;;;;;5092060;28;842;-71
2022/08/04 08:05:45;;;;;;;;;;;;;;;;;;5092944;28;901;-71
2022/08/04 08:08:10;;;;;;;;;;;;;;;;;;5091656;28;1444;-71
2022/08/04 08:10:36;;;;;;;;;;;;;;;;;;5092804;28;821;-71
2022/08/04 08:13:02;;;;;;;;;;;;;;;;;;5092345;28;1277;-71
2022/08/04 08:15:27;;;;;;;;;;;;;;;;;;5092575;28;1910;-71
2022/08/04 08:17:53;;;;;;;;;;;;;;;;;;5093725;28;895;-73
2022/08/04 08:20:18;;;;;;;;;;;;;;;;;;5092946;28;804;-73
2022/08/04 08:22:43;;;;;;;;;;;;;;;;;;5093418;28;1018;-74
2022/08/04 08:25:10;;;;;;;;;;;;;;;;;;5092228;28;1074;-74
2022/08/04 08:27:36;;;;;;;;;;;;;;;;;;5094172;28;880;-74
2022/08/04 08:30:01;;;;;;;;;;;;;;;;;;5093439;28;1045;-73
2022/08/04 08:32:26;;;;;;;;;;;;;;;;;;5093471;28;845;-73
2022/08/04 08:34:52;;;;;;;;;;;;;;;;;;5094128;28;920;-74
2022/08/04 08:37:27;;;;;;;;;;;;;;;;;;5101996;28;1910;-73
2022/08/04 08:40:02;;;;;;;;;;;;;;;;;;5113922;28;987;-74
2022/08/04 08:42:39;;;;;;;;;;;;;;;;;;5112846;28;824;-74
2022/08/04 08:45:07;;;;;;;;;;;;;;;;;;5113092;28;824;-74
2022/08/04 08:47:55;;;;;;;;;;;;;;;;;;5112272;28;916;-74
2022/08/04 08:50:20;;;;;;;;;;;;;;;;;;5111136;28;1118;-74
2022/08/04 08:52:51;;;;;;;;;;;;;;;;;;5113574;28;884;-75
2022/08/04 08:55:19;;;;;;;;;;;;;;;;;;5112746;28;970;-74
2022/08/04 08:58:03;;;;;;;;;;;;;;;;;;5112352;28;884;-74
2022/08/04 09:00:31;;;;;;;;;;;;;;;;;;5112747;28;935;-74
2022/08/04 09:03:16;;;;;;;;;;;;;;;;;;5113190;28;884;-74
2022/08/04 09:05:56;;;;;;;;;;;;;;;;;;5111436;28;962;-74
2022/08/04 09:08:21;;;;;;;;;;;;;;;;;;5111113;28;848;-74
2022/08/04 09:10:49;;;;;;;;;;;;;;;;;;5113592;28;844;-74
2022/08/04 09:13:26;;;;;;;;;;;;;;;;;;5111186;28;1147;-74
2022/08/04 09:15:51;;;;;;;;;;;;;;;;;;5112748;28;1913;-74
2022/08/04 09:18:25;;;;;;;;;;;;;;;;;;5112900;28;805;-74
2022/08/04 09:20:55;;;;;;;;;;;;;;;;;;5112988;28;824;-74
2022/08/04 09:23:22;;;;;;;;;;;;;;;;;;5112924;28;1002;-75
2022/08/04 09:25:57;;;;;;;;;;;;;;;;;;5113343;28;955;-74
2022/08/04 09:28:24;;;;;;;;;;;;;;;;;;5112080;28;939;-74
2022/08/04 09:30:49;;;;;;;;;;;;;;;;;;5112917;28;889;-74
2022/08/04 09:33:21;;;;;;;;;;;;;;;;;;5118416;28;899;-75
2022/08/04 09:35:53;;;;;;;;;;;;;;;;;;5127556;28;1953;-75
2022/08/04 09:38:42;;;;;;;;;;;;;;;;;;5112729;28;1069;-74
2022/08/04 09:41:19;;;;;;;;;;;;;;;;;;5104214;28;1492;-75
2022/08/04 09:44:05;;;;;;;;;;;;;;;;;;5113084;28;872;-75
2022/08/04 09:46:39;;;;;;;;;;;;;;;;;;5112954;28;958;-74
2022/08/04 09:49:16;;;;;;;;;;;;;;;;;;5113324;28;927;-74
2022/08/04 09:51:54;;;;;;;;;;;;;;;;;;5112642;28;868;-74
2022/08/04 09:54:38;;;;;;;;;;;;;;;;;;5112429;28;935;-73
2022/08/04 09:57:13;;;;;;;;;;;;;;;;;;5113043;28;1898;-72
2022/08/04 09:59:52;;;;;;;;;;;;;;;;;;5110955;28;1144;-72
2022/08/04 10:02:18;;;;;;;;;;;;;;;;;;5094577;28;964;-72
2022/08/04 10:04:44;;;;;;;;;;;;;;;;;;5113010;28;947;-72
2022/08/04 10:07:28;;;;;;;;;;;;;;;;;;5112805;28;844;-72
2022/08/04 10:09:59;;;;;;;;;;;;;;;;;;5115389;28;978;-72
2022/08/04 10:12:24;;;;;;;;;;;;;;;;;;5113734;28;1230;-72
2022/08/04 10:15:01;;;;;;;;;;;;;;;;;;5113596;28;839;-72
2022/08/04 10:17:29;;;;;;;;;;;;;;;;;;5115250;28;1917;-72
2022/08/04 10:20:10;;;;;;;;;;;;;;;;;;5116982;28;865;-71
2022/08/04 10:22:37;;;;;;;;;;;;;;;;;;5115465;28;911;-72
2022/08/04 10:25:29;;;;;;;;;;;;;;;;;;5115150;28;978;-71
2022/08/04 10:27:57;;;;;;;;;;;;;;;;;;5115171;28;954;-72
2022/08/04 10:30:23;;;;;;;;;;;;;;;;;;5109676;28;1202;-71
2022/08/04 10:32:53;;;;;;;;;;;;;;;;;;5093243;28;1298;-71
2022/08/04 10:35:20;;;;;;;;;;;;;;;;;;5094219;28;793;-71
2022/08/04 10:37:58;;;;;;;;;;;;;;;;;;5093643;28;1973;-72
2022/08/04 10:40:47;;;;;;;;;;;;;;;;;;5094900;28;832;-72
2022/08/04 10:43:24;;;;;;;;;;;;;;;;;;5094818;28;805;-72
2022/08/04 10:45:53;;;;;;;;;;;;;;;;;;5094825;28;975;-72
2022/08/04 10:48:28;;;;;;;;;;;;;;;;;;5094107;28;821;-72
2022/08/04 10:51:12;;;;;;;;;;;;;;;;;;5092691;28;899;-72
2022/08/04 10:53:38;;;;;;;;;;;;;;;;;;5094270;28;904;-72
2022/08/04 10:56:08;;;;;;;;;;;;;;;;;;5094579;28;1955;-72
2022/08/04 10:58:44;;;;;;;;;;;;;;;;;;5092174;28;1103;-71
2022/08/04 11:01:14;;;;;;;;;;;;;;;;;;5093924;28;821;-72
2022/08/04 11:03:55;;;;;;;;;;;;;;;;;;5094290;28;811;-72
2022/08/04 11:06:22;;;;;;;;;;;;;;;;;;5093416;28;996;-71
2022/08/04 11:08:50;;;;;;;;;;;;;;;;;;5093858;28;987;-71
2022/08/04 11:11:34;;;;;;;;;;;;;;;;;;5093172;28;889;-71
2022/08/04 11:14:21;;;;;;;;;;;;;;;;;;5093472;28;1361;-71
2022/08/04 11:16:54;;;;;;;;;;;;;;;;;;5093241;28;1898;-71
2022/08/04 11:19:32;;;;;;;;;;;;;;;;;;5093081;28;863;-72
2022/08/04 11:22:17;;;;;;;;;;;;;;;;;;5092634;28;924;-72
2022/08/04 11:25:01;;;;;;;;;;;;;;;;;;5093195;28;1640;-71
2022/08/04 11:27:45;;;;;;;;;;;;;;;;;;5092922;28;816;-71
2022/08/04 11:30:12;;;;;;;;;;;;;;;;;;5093811;28;828;-71
2022/08/04 11:33:00;;;;;;;;;;;;;;;;;;5093159;28;832;-71
2022/08/04 11:35:28;;;;;;;;;;;;;;;;;;5090671;28;1966;-71
2022/08/04 11:38:16;;;;;;;;;;;;;;;;;;5091640;28;880;-71
2022/08/04 11:40:42;;;;;;;;;;;;;;;;;;5092768;28;1514;-72
2022/08/04 11:43:30;;;;;;;;;;;;;;;;;;5093385;28;820;-71
2022/08/04 11:45:59;;;;;;;;;;;;;;;;;;5093550;28;1549;-72
2022/08/04 11:48:40;;;;;;;;;;;;;;;;;;5092907;28;1305;-71
2022/08/04 11:51:06;;;;;;;;;;;;;;;;;;5093477;28;880;-71
2022/08/04 11:53:33;;;;;;;;;;;;;;;;;;5092137;28;801;-71
2022/08/04 11:56:00;;;;;;;;;;;;;;;;;;5093485;28;1906;-72
2022/08/04 11:58:26;;;;;;;;;;;;;;;;;;5092434;28;917;-71
2022/08/04 12:01:10;;;;;;;;;;;;;;;;;;5093392;28;829;-71
2022/08/04 12:03:36;;;;;;;;;;;;;;;;;;5092386;28;840;-71
2022/08/04 12:06:24;;;;;;;;;;;;;;;;;;5092824;28;903;-72
2022/08/04 12:09:08;;;;;;;;;;;;;;;;;;5092904;28;857;-72
2022/08/04 12:11:45;;;;;;;;;;;;;;;;;;5092258;28;935;-72
2022/08/04 12:14:27;;;;;;;;;;;;;;;;;;5092553;28;939;-71
2022/08/04 12:16:55;;;;;;;;;;;;;;;;;;5092339;28;1980;-71
2022/08/04 12:19:22;;;;;;;;;;;;;;;;;;5091737;28;853;-71
2022/08/04 12:21:53;;;;;;;;;;;;;;;;;;5092468;28;1082;-72
2022/08/04 12:24:40;;;;;;;;;;;;;;;;;;5092072;28;805;-71
2022/08/04 12:27:16;;;;;;;;;;;;;;;;;;5092913;28;975;-72
2022/08/04 12:29:43;;;;;;;;;;;;;;;;;;5093122;28;875;-72
2022/08/04 12:32:21;;;;;;;;;;;;;;;;;;5092777;28;1235;-72
2022/08/04 12:34:50;;;;;;;;;;;;;;;;;;5092310;28;813;-72
2022/08/04 12:37:33;;;;;;;;;;;;;;;;;;5091363;28;1902;-72
2022/08/04 12:40:01;;;;;;;;;;;;;;;;;;5091958;28;921;-72
2022/08/04 12:42:32;;;;;;;;;;;;;;;;;;5091963;28;1148;-72
2022/08/04 12:44:58;;;;;;;;;;;;;;;;;;5092795;28;829;-72
2022/08/04 12:47:25;;;;;;;;;;;;;;;;;;5093020;28;978;-71
2022/08/04 12:49:52;;;;;;;;;;;;;;;;;;5092408;28;848;-72
2022/08/04 12:52:19;;;;;;;;;;;;;;;;;;5091895;28;891;-72
2022/08/04 12:54:45;;;;;;;;;;;;;;;;;;5091939;28;867;-72
2022/08/04 12:57:12;;;;;;;;;;;;;;;;;;5092170;28;1902;-72
2022/08/04 12:59:43;;;;;;;;;;;;;;;;;;5091158;28;940;-72
2022/08/04 13:02:12;;;;;;;;;;;;;;;;;;5090961;28;967;-71
2022/08/04 13:04:41;;;;;;;;;;;;;;;;;;5092027;28;867;-71
2022/08/04 13:07:09;;;;;;;;;;;;;;;;;;5092236;28;844;-71
2022/08/04 13:09:36;;;;;;;;;;;;;;;;;;5091384;28;800;-71
2022/08/04 13:12:04;;;;;;;;;;;;;;;;;;5091786;28;1218;-71
2022/08/04 13:14:36;;;;;;;;;;;;;;;;;;5091275;28;916;-71
2022/08/04 13:17:03;;;;;;;;;;;;;;;;;;5091979;28;1910;-72
2022/08/04 13:19:29;;;;;;;;;;;;;;;;;;5091266;28;947;-72
2022/08/04 13:21:56;;;;;;;;;;;;;;;;;;5091549;28;1040;-73
2022/08/04 13:24:22;;;;;;;;;;;;;;;;;;5091204;28;787;-72
2022/08/04 13:26:58;;;;;;;;;;;;;;;;;;5091815;28;801;-72
2022/08/04 13:29:30;;;;;;;;;;;;;;;;;;5091601;28;1134;-72
2022/08/04 13:31:55;;;;;;;;;;;;;;;;;;5092586;28;794;-72
2022/08/04 13:34:21;;;;;;;;;;;;;;;;;;5092283;28;875;-72
2022/08/04 13:36:46;;;;;;;;;;;;;;;;;;5091892;28;1964;-72
2022/08/04 13:39:17;;;;;;;;;;;;;;;;;;5091903;28;950;-72
2022/08/04 13:41:45;;;;;;;;;;;;;;;;;;5091552;28;834;-72
2022/08/04 13:44:11;;;;;;;;;;;;;;;;;;5091619;28;892;-71
2022/08/04 13:46:38;;;;;;;;;;;;;;;;;;5090703;28;824;-72
2022/08/04 13:49:07;;;;;;;;;;;;;;;;;;5091273;28;1245;-72
2022/08/04 13:51:34;;;;;;;;;;;;;;;;;;5091825;28;923;-72
2022/08/04 13:54:00;;;;;;;;;;;;;;;;;;5095589;28;876;-72
2022/08/04 13:56:30;;;;;;;;;;;;;;;;;;5103683;28;1969;-72
2022/08/04 13:58:58;;;;;;;;;;;;;;;;;;5114799;28;1135;-72
2022/08/04 14:01:27;;;;;;;;;;;;;;;;;;5115299;28;762;-72
2022/08/04 14:03:58;;;;;;;;;;;;;;;;;;5115998;28;914;-72
2022/08/04 14:06:56;;;;;;;;;;;;;;;;;;5115531;28;1045;-72
2022/08/04 14:09:22;;;;;;;;;;;;;;;;;;5080365;28;1100;-71
2022/08/04 14:11:49;;;;;;;;;;;;;;;;;;5113729;28;1177;-71
2022/08/04 14:14:40;;;;;;;;;;;;;;;;;;5105962;28;1476;-71
2022/08/04 14:17:11;;;;;;;;;;;;;;;;;;5093271;28;1905;-73
2022/08/04 14:19:45;;;;;;;;;;;;;;;;;;5093534;28;1309;-73
2022/08/04 14:22:22;;;;;;;;;;;;;;;;;;5095072;28;860;-74
2022/08/04 14:24:54;;;;;;;;;;;;;;;;;;5095492;28;908;-73
2022/08/04 14:27:19;;;;;;;;;;;;;;;;;;5095337;28;761;-74
2022/08/04 14:29:44;;;;;;;;;;;;;;;;;;5094172;28;1364;-74
2022/08/04 14:32:10;;;;;;;;;;;;;;;;;;5095306;28;785;-73
2022/08/04 14:34:37;;;;;;;;;;;;;;;;;;5095488;28;907;-73
2022/08/04 14:37:06;;;;;;;;;;;;;;;;;;5095057;28;1930;-74
2022/08/04 14:39:42;;;;;;;;;;;;;;;;;;5093333;28;832;-74
2022/08/04 14:42:07;;;;;;;;;;;;;;;;;;5094831;28;1037;-75
2022/08/04 14:44:55;;;;;;;;;;;;;;;;;;5093779;28;773;-73
2022/08/04 14:47:40;;;;;;;;;;;;;;;;;;5093616;28;962;-73
2022/08/04 14:50:06;;;;;;;;;;;;;;;;;;5094036;28;839;-73
2022/08/04 14:52:32;;;;;;;;;;;;;;;;;;5093441;28;808;-72
2022/08/04 14:54:57;;;;;;;;;;;;;;;;;;5092468;28;1386;-73
2022/08/04 14:57:22;;;;;;;;;;;;;;;;;;5109080;28;1882;-72
2022/08/04 14:59:49;;;;;;;;;;;;;;;;;;5115013;28;840;-72
2022/08/04 15:02:14;;;;;;;;;;;;;;;;;;5114077;28;860;-71
2022/08/04 15:04:44;;;;;;;;;;;;;;;;;;5114879;28;813;-70
2022/08/04 15:07:09;;;;;;;;;;;;;;;;;;5114952;28;958;-71
2022/08/04 15:09:35;;;;;;;;;;;;;;;;;;5115184;28;986;-71
2022/08/04 15:12:01;;;;;;;;;;;;;;;;;;5114330;28;1182;-71
2022/08/04 15:14:26;;;;;;;;;;;;;;;;;;5114066;27;1093;-71
2022/08/04 15:16:52;;;;;;;;;;;;;;;;;;5113374;28;1964;-71
2022/08/04 15:19:18;;;;;;;;;;;;;;;;;;5113769;28;903;-71
2022/08/04 15:21:43;;;;;;;;;;;;;;;;;;5113594;28;871;-70
2022/08/04 15:24:09;;;;;;;;;;;;;;;;;;5113800;28;976;-71
2022/08/04 15:26:37;;;;;;;;;;;;;;;;;;5113539;28;812;-71
2022/08/04 15:29:12;;;;;;;;;;;;;;;;;;5113450;27;907;-71
2022/08/04 15:31:38;;;;;;;;;;;;;;;;;;5113898;28;963;-71
2022/08/04 15:34:05;;;;;;;;;;;;;;;;;;5113445;28;1683;-71
2022/08/04 15:36:39;;;;;;;;;;;;;;;;;;5113163;28;1947;-73
2022/08/04 15:39:05;;;;;;;;;;;;;;;;;;5113389;28;983;-73
2022/08/04 15:41:36;;;;;;;;;;;;;;;;;;5113014;28;844;-72
2022/08/04 15:44:28;;;;;;;;;;;;;;;;;;5113119;28;935;-72
2022/08/04 15:47:03;;;;;;;;;;;;;;;;;;5110943;28;717;-72
2022/08/04 15:49:28;;;;;;;;;;;;;;;;;;5111833;28;848;-72
2022/08/04 15:52:04;;;;;;;;;;;;;;;;;;5111415;28;1233;-72
2022/08/04 15:54:30;;;;;;;;;;;;;;;;;;5112639;28;836;-72
2022/08/04 15:56:56;;;;;;;;;;;;;;;;;;5107979;28;1957;-72
2022/08/04 15:59:40;;;;;;;;;;;;;;;;;;5099783;28;1238;-72
2022/08/04 16:02:31;;;;;;;;;;;;;;;;;;5099467;28;1172;-73
2022/08/04 16:05:12;;;;;;;;;;;;;;;;;;5089619;28;1278;-73
2022/08/04 16:07:53;;;;;;;;;;;;;;;;;;5102814;28;1132;-73
2022/08/04 16:10:38;;;;;;;;;;;;;;;;;;5096380;28;1200;-71
2022/08/04 16:13:08;;;;;;;;;;;;;;;;;;5101895;28;1679;-71
2022/08/04 16:15:40;;;;;;;;;;;;;;;;;;5109647;28;1179;-73
2022/08/04 16:18:06;;;;;;;;;;;;;;;;;;5112928;28;982;-73
2022/08/04 16:20:32;;;;;;;;;;;;;;;;;;5112722;28;816;-72
2022/08/04 16:23:02;;;;;;;;;;;;;;;;;;5112823;28;888;-73
2022/08/04 16:25:40;;;;;;;;;;;;;;;;;;5112468;28;1039;-72
2022/08/04 16:28:06;;;;;;;;;;;;;;;;;;5112478;28;1572;-73
2022/08/04 16:30:38;;;;;;;;;;;;;;;;;;5112290;28;1165;-72
2022/08/04 16:33:07;;;;;;;;;;;;;;;;;;5112287;28;820;-72
2022/08/04 16:35:33;;;;;;;;;;;;;;;;;;5112193;28;1076;-71
2022/08/04 16:38:14;;;;;;;;;;;;;;;;;;5111725;28;1975;-71
2022/08/04 16:40:43;;;;;;;;;;;;;;;;;;5110645;28;1127;-71
2022/08/04 16:43:15;;;;;;;;;;;;;;;;;;5112256;28;879;-70
2022/08/04 16:45:45;;;;;;;;;;;;;;;;;;5111451;28;887;-71
2022/08/04 16:48:11;;;;;;;;;;;;;;;;;;5112537;28;843;-73
2022/08/04 16:50:48;;;;;;;;;;;;;;;;;;5111204;28;878;-73
2022/08/04 16:53:14;;;;;;;;;;;;;;;;;;5110738;28;875;-72
2022/08/04 16:55:44;;;;;;;;;;;;;;;;;;5112586;28;1901;-73
2022/08/04 16:58:09;;;;;;;;;;;;;;;;;;5112571;28;737;-72
2022/08/04 17:00:35;;;;;;;;;;;;;;;;;;5111676;28;812;-73
2022/08/04 17:03:04;;;;;;;;;;;;;;;;;;5111326;28;852;-73
2022/08/04 17:05:30;;;;;;;;;;;;;;;;;;5112435;28;970;-73
2022/08/04 17:07:57;;;;;;;;;;;;;;;;;;5113137;28;903;-73
2022/08/04 17:10:36;;;;;;;;;;;;;;;;;;5111619;28;807;-73
2022/08/04 17:13:18;;;;;;;;;;;;;;;;;;5111498;28;1492;-73
2022/08/04 17:15:45;;;;;;;;;;;;;;;;;;5111744;28;1949;-72
2022/08/04 17:18:15;;;;;;;;;;;;;;;;;;5111696;28;963;-73
2022/08/04 17:20:40;;;;;;;;;;;;;;;;;;5111741;28;903;-73
2022/08/04 17:23:29;;;;;;;;;;;;;;;;;;5111751;28;994;-73
2022/08/04 17:25:59;;;;;;;;;;;;;;;;;;5105647;28;1230;-72
2022/08/04 17:28:25;;;;;;;;;;;;;;;;;;5115845;27;812;-72
2022/08/04 17:30:51;;;;;;;;;;;;;;;;;;5115600;28;920;-70
2022/08/04 17:33:17;;;;;;;;;;;;;;;;;;5113392;28;1177;-70
2022/08/04 17:35:45;;;;;;;;;;;;;;;;;;5115076;28;1905;-71
2022/08/04 17:38:11;;;;;;;;;;;;;;;;;;5115572;28;840;-71
2022/08/04 17:41:08;;;;;;;;;;;;;;;;;;5114331;28;1906;-72
2022/08/04 17:43:38;;;;;;;;;;;;;;;;;;5081031;28;1419;-73